Time;durP1;ratioP1;P1;durP2;ratioP2;P2;SDS_P1;SDS_P2;PMS_P1;PMS_P2;Temp;Humidity;BMP_temperature;BMP_pressure;BME280_temperature;BME280_humidity;BME280_pressure;Samples;Min_cycle;Max_cycle;Signal;HPM_P1;HPM_P2
2022/04/03 00:00:12;;;;;;;7.50;6.10;;;;;;;10.66;52.91;99040.41;117266;1189;24173;-62
2022/04/03 00:02:40;;;;;;;7.30;5.70;;;;;;;10.70;52.81;99042.58;117194;1186;23554;-50
2022/04/03 00:05:09;;;;;;;8.10;6.20;;;;;;;10.76;52.88;99038.16;117244;1188;23465;-61
2022/04/03 00:07:37;;;;;;;7.80;6.10;;;;;;;10.81;52.84;99034.48;117295;1186;23691;-50
2022/04/03 00:10:06;;;;;;;8.80;6.50;;;;;;;10.87;52.93;99028.48;117172;1186;23470;-51
2022/04/03 00:12:36;;;;;;;8.20;6.10;;;;;;;10.91;53.05;99025.89;117215;1186;22060;-62
2022/04/03 00:15:04;;;;;;;9.30;6.50;;;;;;;10.96;53.07;99027.84;117196;1186;21880;-51
2022/04/03 00:17:34;;;;;;;8.00;6.70;;;;;;;11.02;53.16;99013.23;117272;1185;21853;-51
2022/04/03 00:20:06;;;;;;;7.90;5.70;;;;;;;11.09;53.02;99011.38;117195;1186;23526;-62
2022/04/03 00:22:35;;;;;;;9.60;6.20;;;;;;;11.16;53.19;99011.83;117228;1185;24191;-50
2022/04/03 00:25:05;;;;;;;8.90;6.30;;;;;;;11.21;53.10;99016.75;117231;1185;23472;-51
2022/04/03 00:27:34;;;;;;;7.70;5.60;;;;;;;11.25;53.18;99013.79;117245;1186;21885;-51
2022/04/03 00:30:03;;;;;;;8.40;6.60;;;;;;;11.30;53.04;99018.01;117283;1186;21840;-62
2022/04/03 00:32:33;;;;;;;7.70;5.70;;;;;;;11.33;53.08;99027.91;117190;1186;24183;-55
2022/04/03 00:35:03;;;;;;;10.10;7.40;;;;;;;11.34;53.00;99034.73;117274;1186;22931;-51
2022/04/03 00:37:32;;;;;;;10.60;6.90;;;;;;;11.31;53.11;99021.46;117182;1186;23451;-51
2022/04/03 00:40:00;;;;;;;9.20;6.60;;;;;;;11.29;52.90;99019.60;117221;1186;21862;-62
2022/04/03 00:42:28;;;;;;;10.00;6.50;;;;;;;11.28;52.95;99016.65;117357;1186;22478;-62
2022/04/03 00:44:57;;;;;;;11.20;8.00;;;;;;;11.28;53.04;99015.26;117270;1186;23470;-50
2022/04/03 00:47:25;;;;;;;10.10;7.00;;;;;;;11.26;52.86;99016.20;117149;1186;23453;-50
2022/04/03 00:49:54;;;;;;;11.10;8.00;;;;;;;11.25;52.89;99013.27;117167;1187;21919;-62
2022/04/03 00:52:24;;;;;;;10.10;7.50;;;;;;;11.24;52.82;99015.95;117234;1184;23726;-62
2022/04/03 00:54:53;;;;;;;10.30;7.60;;;;;;;11.23;53.00;99012.31;117278;1189;23477;-51
2022/04/03 00:57:22;;;;;;;10.80;7.80;;;;;;;11.20;52.89;99010.64;117131;1186;23474;-62
2022/04/03 00:59:50;;;;;;;11.50;8.00;;;;;;;11.18;52.92;99010.20;117253;1186;22952;-61
2022/04/03 01:02:19;;;;;;;10.20;7.80;;;;;;;11.14;52.82;99007.69;117309;1186;23452;-50
2022/04/03 01:04:47;;;;;;;10.40;7.90;;;;;;;11.10;52.97;99009.77;117252;1186;23609;-62
2022/04/03 01:07:21;;;;;;;12.40;8.00;;;;;;;11.06;52.94;99012.39;117120;1186;23624;-51
2022/04/03 01:09:49;;;;;;;11.10;8.00;;;;;;;11.02;52.97;99012.18;117256;1185;23484;-62
2022/04/03 01:12:18;;;;;;;11.90;7.80;;;;;;;10.97;52.93;99005.15;117207;1186;23471;-62
2022/04/03 01:15:08;;;;;;;11.00;7.70;;;;;;;10.92;52.87;98995.14;117242;1186;23467;-62
2022/04/03 01:17:37;;;;;;;11.90;7.80;;;;;;;10.91;53.01;98997.46;117299;1185;21855;-62
2022/04/03 01:20:06;;;;;;;11.20;7.30;;;;;;;10.91;52.99;98993.27;117147;1188;23448;-62
2022/04/03 01:22:35;;;;;;;11.90;7.70;;;;;;;10.90;53.11;98994.51;117201;1186;23448;-50
2022/04/03 01:25:04;;;;;;;12.40;8.40;;;;;;;10.90;52.93;98997.52;117248;1184;21868;-62
2022/04/03 01:27:52;;;;;;;10.60;7.70;;;;;;;10.88;53.04;99000.04;117251;1186;23020;-50
2022/04/03 01:30:21;;;;;;;14.60;8.00;;;;;;;10.87;52.98;99005.66;117259;1186;23450;-62
2022/04/03 01:32:49;;;;;;;12.80;8.30;;;;;;;10.87;52.97;99011.12;117223;1186;24233;-61
2022/04/03 01:35:17;;;;;;;12.40;8.50;;;;;;;10.85;52.93;99017.15;117071;1186;23500;-62
2022/04/03 01:37:46;;;;;;;10.80;7.30;;;;;;;10.83;52.90;99026.16;117296;1186;23453;-50
2022/04/03 01:40:16;;;;;;;13.20;8.20;;;;;;;10.82;53.08;99029.18;117251;1189;21917;-50
2022/04/03 01:42:45;;;;;;;12.40;8.60;;;;;;;10.81;52.88;99038.02;117272;1186;21980;-61
2022/04/03 01:45:13;;;;;;;11.60;8.20;;;;;;;10.79;52.81;99041.58;117237;1185;21851;-62
2022/04/03 01:47:42;;;;;;;11.80;8.10;;;;;;;10.77;52.92;99040.23;117263;1186;23523;-62
2022/04/03 01:50:11;;;;;;;11.60;7.90;;;;;;;10.76;52.90;99042.90;117131;1186;24139;-62
2022/04/03 01:52:40;;;;;;;11.40;8.30;;;;;;;10.74;52.95;99038.23;117214;1186;23539;-62
2022/04/03 01:55:09;;;;;;;12.40;8.00;;;;;;;10.73;53.00;99042.13;117253;1186;23442;-62
2022/04/03 01:57:37;;;;;;;12.90;8.40;;;;;;;10.73;52.97;99041.28;117135;1186;22946;-50
2022/04/03 02:00:09;;;;;;;11.80;7.30;;;;;;;10.72;53.14;99037.23;117302;1186;23624;-62
2022/04/03 02:02:39;;;;;;;12.00;8.10;;;;;;;10.72;53.05;99030.40;117195;1186;24162;-50
2022/04/03 02:05:08;;;;;;;12.30;7.80;;;;;;;10.71;53.06;99037.81;117257;1186;21848;-50
2022/04/03 02:07:37;;;;;;;12.10;8.30;;;;;;;10.70;53.01;99042.56;117267;1186;21861;-60
2022/04/03 02:10:09;;;;;;;13.00;9.40;;;;;;;10.70;52.95;99044.50;117260;1186;23474;-50
2022/04/03 02:12:48;;;;;;;13.00;8.40;;;;;;;10.70;52.97;99044.16;117235;1185;23462;-50
2022/04/03 02:15:17;;;;;;;11.40;8.00;;;;;;;10.69;53.07;99043.31;117263;1186;21983;-62
2022/04/03 02:18:05;;;;;;;10.70;8.00;;;;;;;10.69;53.04;99041.36;117242;1186;22982;-62
2022/04/03 02:20:34;;;;;;;12.70;8.60;;;;;;;10.70;52.99;99042.58;117220;1186;23465;-62
2022/04/03 02:23:03;;;;;;;11.10;8.30;;;;;;;10.70;53.09;99044.50;117182;1189;21867;-62
2022/04/03 02:25:34;;;;;;;14.80;8.40;;;;;;;10.69;52.96;99041.22;117163;1186;22916;-62
2022/04/03 02:28:04;;;;;;;12.70;9.00;;;;;;;10.67;53.09;99035.48;117231;1186;21836;-60
2022/04/03 02:30:33;;;;;;;12.20;8.70;;;;;;;10.67;53.08;99039.16;117144;1186;22913;-62
2022/04/03 02:33:02;;;;;;;12.70;8.80;;;;;;;10.69;53.07;99042.63;117282;1186;23470;-50
2022/04/03 02:35:31;;;;;;;12.50;9.00;;;;;;;10.71;53.15;99040.63;117234;1186;23450;-50
2022/04/03 02:38:00;;;;;;;12.00;9.00;;;;;;;10.74;53.17;99037.02;117256;1186;21859;-62
2022/04/03 02:40:28;;;;;;;13.30;9.00;;;;;;;10.76;53.28;99033.95;117237;1186;21984;-62
2022/04/03 02:43:04;;;;;;;12.40;8.30;;;;;;;10.79;53.16;99033.34;117221;1186;24210;-60
2022/04/03 02:45:34;;;;;;;14.00;9.30;;;;;;;10.81;53.12;99033.64;117078;1186;21860;-50
2022/04/03 02:48:04;;;;;;;13.00;8.50;;;;;;;10.81;53.24;99028.69;117131;1187;23448;-50
2022/04/03 02:50:33;;;;;;;12.80;8.70;;;;;;;10.82;53.26;99024.98;116989;1189;22727;-62
2022/04/03 02:53:03;;;;;;;12.60;8.40;;;;;;;10.85;53.24;99020.66;117234;1186;22932;-62
2022/04/03 02:55:31;;;;;;;12.90;9.60;;;;;;;10.86;53.23;99018.86;117058;1187;21908;-62
2022/04/03 02:58:01;;;;;;;12.20;8.40;;;;;;;10.85;53.20;99014.86;117241;1186;22490;-62
2022/04/03 03:00:30;;;;;;;12.80;8.60;;;;;;;10.82;53.15;99004.27;117327;1186;24149;-50
2022/04/03 03:02:58;;;;;;;12.20;8.40;;;;;;;10.77;53.16;99002.86;117276;1186;22944;-62
2022/04/03 03:05:27;;;;;;;13.00;8.50;;;;;;;10.73;53.07;99004.59;117309;1186;22170;-50
2022/04/03 03:08:13;;;;;;;13.90;8.30;;;;;;;10.68;53.16;99009.13;117063;1186;23445;-50
2022/04/03 03:10:43;;;;;;;10.10;7.90;;;;;;;10.65;53.03;99016.25;117271;1186;21910;-50
2022/04/03 03:13:12;;;;;;;11.70;7.70;;;;;;;10.62;53.15;99014.95;117252;1186;21852;-62
2022/04/03 03:15:42;;;;;;;12.80;8.80;;;;;;;10.59;53.08;99014.54;117217;1185;22256;-51
2022/04/03 03:18:30;;;;;;;10.40;7.80;;;;;;;10.58;53.05;99013.54;117218;1186;21980;-62
2022/04/03 03:21:01;;;;;;;;;;;;;;;10.57;53.15;99020.41;117262;1186;21867;-62
2022/04/03 03:23:29;;;;;;;13.00;8.20;;;;;;;10.55;53.10;99023.95;117262;1186;23021;-62
2022/04/03 03:25:58;;;;;;;13.40;9.30;;;;;;;10.55;53.22;99017.65;117207;1186;23455;-62
2022/04/03 03:28:26;;;;;;;15.30;10.30;;;;;;;10.55;53.29;99009.05;117095;1186;24790;-62
2022/04/03 03:30:54;;;;;;;13.20;9.40;;;;;;;10.57;53.25;99004.62;117607;1186;23439;-50
2022/04/03 03:33:23;;;;;;;12.60;9.00;;;;;;;10.59;53.36;99000.17;117153;1186;23473;-50
2022/04/03 03:35:51;;;;;;;11.40;7.90;;;;;;;10.61;53.33;99003.23;117161;1187;21858;-57
2022/04/03 03:38:20;;;;;;;11.80;7.50;;;;;;;10.66;53.33;99007.28;117206;1186;21856;-62
2022/04/03 03:40:50;;;;;;;10.70;8.00;;;;;;;10.68;53.38;99011.77;117154;1186;23475;-50
2022/04/03 03:43:23;;;;;;;11.60;8.30;;;;;;;10.69;53.47;99015.58;117205;1185;24246;-50
2022/04/03 03:45:52;;;;;;;11.70;8.40;;;;;;;10.71;53.36;99015.17;117247;1185;22745;-52
2022/04/03 03:48:20;;;;;;;11.00;7.90;;;;;;;10.72;53.32;99020.77;117165;1186;21860;-62
2022/04/03 03:50:51;;;;;;;13.30;8.70;;;;;;;10.70;53.52;99031.02;117276;1186;23475;-62
2022/04/03 03:53:19;;;;;;;13.30;9.00;;;;;;;10.64;53.29;99037.52;117305;1186;23634;-62
2022/04/03 03:55:49;;;;;;;13.40;8.70;;;;;;;10.59;53.23;99042.06;117250;1181;23477;-62
2022/04/03 03:58:18;;;;;;;13.70;8.60;;;;;;;10.60;53.22;99036.95;117311;1185;22937;-50
2022/04/03 04:00:57;;;;;;;14.20;8.70;;;;;;;10.64;53.37;99035.41;117182;1185;24274;-50
2022/04/03 04:03:26;;;;;;;20.30;10.40;;;;;;;10.68;53.51;99032.47;117249;1185;23458;-61
2022/04/03 04:05:55;;;;;;;15.20;9.20;;;;;;;10.75;53.39;99036.10;117121;1186;21852;-50
2022/04/03 04:08:30;;;;;;;13.80;8.40;;;;;;;10.80;53.60;99034.88;117084;1186;24244;-61
2022/04/03 04:11:03;;;;;;;26.00;9.80;;;;;;;10.85;53.73;99030.12;117174;1186;23504;-50
2022/04/03 04:13:52;;;;;;;14.30;8.90;;;;;;;10.94;53.70;99026.82;117070;1186;23587;-50
2022/04/03 04:16:21;;;;;;;16.50;9.40;;;;;;;11.04;53.69;99018.05;117279;1186;22466;-50
2022/04/03 04:18:50;;;;;;;30.40;9.90;;;;;;;11.12;53.63;99013.90;117307;1185;21865;-62
2022/04/03 04:21:19;;;;;;;23.40;9.40;;;;;;;11.20;53.80;98983.26;117252;1186;24170;-49
2022/04/03 04:23:48;;;;;;;24.90;10.60;;;;;;;11.30;53.86;98957.57;117246;1186;21852;-61
2022/04/03 04:26:16;;;;;;;22.70;9.80;;;;;;;11.36;53.53;98956.50;117241;1186;23448;-61
2022/04/03 04:28:48;;;;;;;12.80;9.50;;;;;;;11.39;53.62;98982.88;117125;1186;23465;-50
2022/04/03 04:31:16;;;;;;;16.80;10.00;;;;;;;11.40;53.38;99009.73;117115;1189;22991;-61
2022/04/03 04:33:46;;;;;;;;;;;;;;;11.37;53.59;99013.00;117136;1186;23018;-59
2022/04/03 04:36:15;;;;;;;15.70;9.20;;;;;;;11.35;53.55;99018.52;117273;1186;23457;-61
2022/04/03 04:38:44;;;;;;;16.80;9.70;;;;;;;11.36;53.66;99014.98;117253;1185;24160;-50
2022/04/03 04:41:13;;;;;;;18.80;10.40;;;;;;;11.40;53.62;99011.66;117240;1188;23457;-49
2022/04/03 04:43:42;;;;;;;20.30;10.60;;;;;;;11.45;53.62;99009.89;117246;1186;23477;-61
2022/04/03 04:46:11;;;;;;;14.20;9.60;;;;;;;11.51;53.57;99007.92;117252;1186;24170;-61
2022/04/03 04:48:40;;;;;;;16.60;10.70;;;;;;;11.56;53.70;99009.83;117150;1186;23557;-51
2022/04/03 04:51:09;;;;;;;15.10;9.80;;;;;;;11.61;53.67;99009.12;117306;1186;22932;-50
2022/04/03 04:53:39;;;;;;;12.30;9.20;;;;;;;11.66;53.61;99012.79;117274;1186;23449;-61
2022/04/03 04:56:09;;;;;;;15.30;10.70;;;;;;;11.73;53.73;99017.27;117220;1186;22929;-50
2022/04/03 04:58:37;;;;;;;15.60;10.90;;;;;;;11.81;53.93;99021.88;117256;1186;24176;-50
2022/04/03 05:01:06;;;;;;;19.70;10.70;;;;;;;11.89;53.78;99025.94;117258;1185;21858;-61
2022/04/03 05:03:35;;;;;;;13.00;9.70;;;;;;;11.97;53.74;99032.48;117262;1186;23455;-61
2022/04/03 05:06:03;;;;;;;13.20;10.10;;;;;;;12.04;53.89;99038.58;117195;1186;23481;-50
2022/04/03 05:08:31;;;;;;;14.30;9.80;;;;;;;12.12;53.87;99043.39;117111;1187;24375;-51
2022/04/03 05:11:01;;;;;;;14.80;9.80;;;;;;;12.20;54.00;99042.86;117163;1186;23453;-61
2022/04/03 05:13:29;;;;;;;13.50;10.20;;;;;;;12.29;53.97;99036.17;117261;1186;24189;-62
2022/04/03 05:15:58;;;;;;;13.40;10.00;;;;;;;12.39;54.03;99028.55;117122;1186;23475;-51
2022/04/03 05:18:46;;;;;;;12.40;9.80;;;;;;;12.49;54.01;99037.48;117124;1188;21893;-52
2022/04/03 05:21:15;;;;;;;11.80;9.20;;;;;;;12.48;53.83;99045.95;117238;1186;23439;-51
2022/04/03 05:23:43;;;;;;;14.20;10.90;;;;;;;12.45;53.66;99046.42;117077;1187;24151;-51
2022/04/03 05:26:13;;;;;;;23.40;12.60;;;;;;;12.45;53.77;99040.27;117282;1186;21871;-62
2022/04/03 05:28:41;;;;;;;16.60;10.90;;;;;;;12.54;53.89;99028.64;117233;1186;23498;-62
2022/04/03 05:31:10;;;;;;;13.10;10.50;;;;;;;12.64;54.06;99029.27;117206;1186;23439;-52
2022/04/03 05:33:39;;;;;;;12.30;10.10;;;;;;;12.73;53.92;99032.41;117167;1186;21852;-62
2022/04/03 05:36:07;;;;;;;13.10;10.20;;;;;;;12.76;53.81;99036.19;117146;1186;23554;-62
2022/04/03 05:38:44;;;;;;;11.40;9.00;;;;;;;12.78;53.96;99032.92;116959;1187;22810;-62
2022/04/03 05:41:13;;;;;;;12.30;10.10;;;;;;;12.80;53.79;99029.67;117074;1186;23580;-62
2022/04/03 05:43:42;;;;;;;14.10;9.70;;;;;;;12.85;53.75;99027.36;117162;1186;23490;-62
2022/04/03 05:46:10;;;;;;;13.40;9.40;;;;;;;12.92;53.84;99025.65;117184;1186;21938;-62
2022/04/03 05:48:39;;;;;;;13.30;10.00;;;;;;;13.02;53.96;99025.38;117010;1186;23648;-62
2022/04/03 05:51:08;;;;;;;13.30;9.80;;;;;;;13.08;53.90;99025.27;118352;1186;23547;-53
2022/04/03 05:53:36;;;;;;;10.90;8.70;;;;;;;13.06;53.85;99027.66;117089;1186;23553;-53
2022/04/03 05:56:04;;;;;;;13.30;9.60;;;;;;;13.04;53.74;99033.05;117231;1186;23450;-51
2022/04/03 05:58:34;;;;;;;11.30;8.90;;;;;;;12.98;53.57;99040.34;117204;1186;24173;-62
2022/04/03 06:01:02;;;;;;;12.90;9.90;;;;;;;12.83;53.45;99049.60;117380;1185;22117;-61
2022/04/03 06:03:34;;;;;;;11.90;9.00;;;;;;;12.56;53.22;99060.95;117120;1186;24170;-51
2022/04/03 06:06:04;;;;;;;12.00;9.20;;;;;;;12.34;53.14;99067.45;117125;1186;24170;-51
2022/04/03 06:08:32;;;;;;;12.40;9.80;;;;;;;12.15;53.18;99078.40;117110;1187;23447;-61
2022/04/03 06:11:00;;;;;;;14.10;10.10;;;;;;;11.92;53.12;99082.64;117257;1185;21919;-52
2022/04/03 06:13:41;;;;;;;12.90;10.20;;;;;;;11.67;53.12;99085.48;117094;1186;24206;-52
2022/04/03 06:16:10;;;;;;;12.90;10.30;;;;;;;11.49;53.14;99084.20;117110;1186;23461;-51
2022/04/03 06:18:57;;;;;;;14.70;10.30;;;;;;;11.32;53.26;99077.83;118191;1185;22105;-52
2022/04/03 06:21:25;;;;;;;12.50;9.60;;;;;;;11.15;53.38;99081.58;117355;1186;24233;-52
2022/04/03 06:23:53;;;;;;;13.50;10.20;;;;;;;11.01;53.43;99087.15;117264;1186;24167;-62
2022/04/03 06:26:22;;;;;;;13.90;10.60;;;;;;;10.92;53.52;99097.83;117217;1186;21961;-61
2022/04/03 06:28:54;;;;;;;14.00;10.80;;;;;;;10.86;53.52;99096.96;117219;1186;21850;-60
2022/04/03 06:31:29;;;;;;;14.40;10.30;;;;;;;10.82;53.60;99088.50;117238;1186;23451;-61
2022/04/03 06:33:58;;;;;;;13.90;10.10;;;;;;;10.86;53.58;99079.42;117075;1186;23579;-51
2022/04/03 06:36:26;;;;;;;16.40;10.90;;;;;;;10.91;53.65;99080.10;117232;1185;23567;-61
2022/04/03 06:38:54;;;;;;;13.40;10.10;;;;;;;10.93;53.58;99079.50;117146;1186;21880;-52
2022/04/03 06:41:24;;;;;;;15.50;10.60;;;;;;;10.94;53.68;99082.83;117203;1186;23475;-51
2022/04/03 06:43:52;;;;;;;12.80;10.00;;;;;;;10.94;53.63;99075.80;117660;1185;23488;-50
2022/04/03 06:46:20;;;;;;;13.70;10.10;;;;;;;10.98;53.74;99068.27;117230;1186;21866;-51
2022/04/03 06:48:56;;;;;;;15.00;11.10;;;;;;;11.08;53.79;99065.64;117108;1186;22829;-61
2022/04/03 06:51:24;;;;;;;14.00;10.90;;;;;;;11.21;54.00;99063.28;117060;1186;24185;-61
2022/04/03 06:53:54;;;;;;;14.60;10.50;;;;;;;11.35;54.05;99062.60;117203;1186;23465;-61
2022/04/03 06:56:22;;;;;;;15.60;11.40;;;;;;;11.49;54.08;99066.48;117332;1186;22963;-51
2022/04/03 06:58:54;;;;;;;14.30;10.90;;;;;;;11.61;54.12;99073.06;117255;1186;21866;-61
2022/04/03 07:01:22;;;;;;;15.70;12.60;;;;;;;11.70;53.96;99078.69;117230;1186;21852;-61
2022/04/03 07:03:51;;;;;;;20.10;16.50;;;;;;;11.78;53.94;99082.96;117218;1186;23496;-60
2022/04/03 07:06:20;;;;;;;25.10;17.40;;;;;;;11.80;53.82;99086.06;117260;1188;21860;-51
2022/04/03 07:08:48;;;;;;;20.90;16.70;;;;;;;11.77;53.89;99088.10;117194;1186;23606;-51
2022/04/03 07:11:17;;;;;;;19.90;16.90;;;;;;;11.69;53.84;99088.94;117161;1186;22965;-51
2022/04/03 07:13:46;;;;;;;18.60;16.60;;;;;;;11.62;53.82;99090.78;117164;1186;24367;-50
2022/04/03 07:16:15;;;;;;;20.30;16.50;;;;;;;11.54;53.66;99094.06;117117;1186;23484;-51
2022/04/03 07:18:44;;;;;;;20.50;16.20;;;;;;;11.50;53.78;99102.13;117062;1186;21852;-51
2022/04/03 07:21:32;;;;;;;20.40;15.60;;;;;;;11.40;53.60;99101.76;117155;1186;23301;-60
2022/04/03 07:24:01;;;;;;;18.10;16.00;;;;;;;11.32;53.59;99101.15;117323;1186;24292;-60
2022/04/03 07:26:29;;;;;;;17.10;14.90;;;;;;;11.27;53.64;99102.40;117204;1186;21901;-50
2022/04/03 07:28:59;;;;;;;17.70;14.60;;;;;;;11.20;53.50;99107.75;117133;1186;23019;-50
2022/04/03 07:31:28;;;;;;;19.90;14.00;;;;;;;11.09;53.65;99111.77;117168;1186;22847;-50
2022/04/03 07:33:58;;;;;;;17.00;13.70;;;;;;;11.01;53.58;99111.73;117119;1186;23557;-59
2022/04/03 07:36:29;;;;;;;17.60;14.90;;;;;;;10.93;53.54;99113.39;117061;1186;23481;-51
2022/04/03 07:38:58;;;;;;;18.10;14.20;;;;;;;10.90;53.70;99112.61;117226;1186;21875;-51
2022/04/03 07:41:27;;;;;;;16.60;14.00;;;;;;;10.94;54.00;99111.61;117288;1186;23452;-52
2022/04/03 07:43:56;;;;;;;19.80;15.70;;;;;;;11.11;54.27;99105.23;117137;1186;24154;-61
2022/04/03 07:46:26;;;;;;;;;;;;;;;11.34;54.36;99103.73;117233;1186;23571;-52
2022/04/03 07:48:55;;;;;;;21.80;16.30;;;;;;;11.57;54.52;99103.09;117210;1185;23478;-51
2022/04/03 07:51:23;;;;;;;19.70;15.40;;;;;;;11.76;54.44;99097.26;117227;1185;24603;-52
2022/04/03 07:53:54;;;;;;;17.80;15.50;;;;;;;11.87;54.37;99099.49;117137;1186;24248;-53
2022/04/03 07:56:23;;;;;;;20.30;15.70;;;;;;;11.97;54.27;99104.05;117085;1186;21869;-60
2022/04/03 07:58:53;;;;;;;17.60;15.40;;;;;;;12.14;54.57;99108.37;117271;1185;23472;-51
2022/04/03 08:01:21;;;;;;;17.30;15.30;;;;;;;12.30;54.41;99113.71;117270;1186;24175;-52
2022/04/03 08:03:50;;;;;;;21.00;14.10;;;;;;;12.37;54.26;99114.33;117107;1186;21849;-51
2022/04/03 08:06:19;;;;;;;19.00;14.60;;;;;;;12.34;54.06;99120.95;117222;1186;23481;-59
2022/04/03 08:08:51;;;;;;;16.10;13.80;;;;;;;12.28;53.87;99125.57;117133;1186;23451;-60
2022/04/03 08:11:20;;;;;;;15.90;13.30;;;;;;;12.27;54.08;99128.60;117118;1186;23557;-59
2022/04/03 08:13:48;;;;;;;16.20;13.10;;;;;;;12.31;54.09;99133.36;117257;1186;23474;-51
2022/04/03 08:16:17;;;;;;;18.20;13.00;;;;;;;12.34;54.07;99142.92;117191;1186;23566;-59
2022/04/03 08:18:48;;;;;;;14.50;12.00;;;;;;;12.25;53.63;99138.88;117312;1186;21875;-59
2022/04/03 08:21:18;;;;;;;14.50;12.30;;;;;;;12.15;53.88;99140.65;117370;1185;22646;-51
2022/04/03 08:23:47;;;;;;;13.10;11.40;;;;;;;12.08;53.77;99146.22;117417;1185;21860;-51
2022/04/03 08:26:17;;;;;;;17.40;12.10;;;;;;;11.96;53.81;99151.39;117276;1185;22659;-49
2022/04/03 08:28:45;;;;;;;13.40;11.70;;;;;;;11.86;53.73;99159.48;117085;1186;23478;-51
2022/04/03 08:31:14;;;;;;;13.00;11.30;;;;;;;11.79;53.78;99160.07;117221;1186;23002;-48
2022/04/03 08:33:43;;;;;;;12.30;10.80;;;;;;;11.77;53.86;99163.16;117231;1186;23653;-49
2022/04/03 08:36:11;;;;;;;13.00;10.60;;;;;;;11.71;53.69;99168.98;117268;1185;23569;-50
2022/04/03 08:38:40;;;;;;;11.20;10.00;;;;;;;11.68;53.87;99183.87;117342;1185;21944;-51
2022/04/03 08:41:09;;;;;;;13.60;10.40;;;;;;;11.64;53.78;99187.36;117366;1184;21847;-59
2022/04/03 08:43:40;;;;;;;10.50;8.90;;;;;;;11.57;53.60;99193.02;117185;1185;22916;-50
2022/04/03 08:46:08;;;;;;;10.20;9.00;;;;;;;11.44;53.47;99199.80;117289;1185;22918;-50
2022/04/03 08:48:43;;;;;;;10.20;8.80;;;;;;;11.30;53.49;99202.20;117351;1185;22620;-50
2022/04/03 08:51:11;;;;;;;11.20;9.30;;;;;;;11.23;53.60;99206.67;117228;1186;21866;-59
2022/04/03 08:53:45;;;;;;;10.70;9.00;;;;;;;11.10;53.66;99212.34;117156;1185;22966;-59
2022/04/03 08:56:14;;;;;;;10.90;9.20;;;;;;;10.97;53.62;99217.33;117226;1186;23660;-59
2022/04/03 08:58:42;;;;;;;11.00;9.80;;;;;;;10.88;53.57;99218.86;117189;1186;21903;-59
2022/04/03 09:01:11;;;;;;;15.00;11.00;;;;;;;10.82;53.59;99219.59;117295;1186;21897;-58
2022/04/03 09:03:39;;;;;;;11.30;9.00;;;;;;;10.76;53.64;99220.80;117117;1185;21858;-59
2022/04/03 09:06:13;;;;;;;11.00;8.90;;;;;;;10.76;53.79;99220.48;117317;1188;21898;-59
2022/04/03 09:08:42;;;;;;;9.50;7.50;;;;;;;10.78;53.90;99225.14;117101;1186;21852;-59
2022/04/03 09:11:12;;;;;;;9.30;7.80;;;;;;;10.72;53.70;99225.17;117218;1186;22594;-50
2022/04/03 09:13:42;;;;;;;9.40;7.90;;;;;;;10.67;53.71;99231.27;117214;1184;22829;-49
2022/04/03 09:16:39;;;;;;;8.70;7.20;;;;;;;10.60;53.65;99234.48;117179;1186;21973;-49
2022/04/03 09:19:08;;;;;;;8.20;6.70;;;;;;;10.59;53.89;99234.49;117071;1186;22643;-58
2022/04/03 09:21:37;;;;;;;8.60;7.20;;;;;;;10.61;53.84;99233.02;118062;1185;21840;-50
2022/04/03 09:24:11;;;;;;;10.10;7.40;;;;;;;10.68;53.96;99229.48;117804;1186;23452;-49
2022/04/03 09:26:40;;;;;;;9.70;7.80;;;;;;;10.81;54.21;99230.84;117340;1185;23640;-59
2022/04/03 09:29:10;;;;;;;11.80;9.00;;;;;;;10.96;54.45;99231.24;117339;1184;22930;-49
2022/04/03 09:31:39;;;;;;;10.90;8.00;;;;;;;11.17;54.44;99230.75;117371;1185;21893;-49
2022/04/03 09:34:14;;;;;;;9.90;8.00;;;;;;;11.39;54.49;99231.23;117387;1181;22928;-49
2022/04/03 09:36:43;;;;;;;8.90;7.60;;;;;;;11.53;54.48;99232.88;117332;1184;23448;-59
2022/04/03 09:39:16;;;;;;;8.20;6.30;;;;;;;11.63;54.50;99233.05;117217;1186;23644;-50
2022/04/03 09:42:03;;;;;;;6.80;5.30;;;;;;;11.77;54.54;99227.80;117241;1186;23450;-49
2022/04/03 09:44:33;;;;;;;6.60;5.50;;;;;;;11.81;54.16;99225.93;117224;1186;21851;-49
2022/04/03 09:47:38;;;;;;;6.40;4.70;;;;;;;11.80;54.14;99231.77;117250;1186;21915;-49
2022/04/03 09:50:06;;;;;;;6.00;4.90;;;;;;;11.87;54.02;99236.93;117195;1186;23539;-49
2022/04/03 09:52:38;;;;;;;5.30;4.40;;;;;;;11.89;53.95;99244.11;117100;1187;21869;-58
2022/04/03 09:55:14;;;;;;;6.80;4.60;;;;;;;11.84;53.60;99251.30;117307;1185;23528;-49
2022/04/03 09:57:44;;;;;;;5.00;4.40;;;;;;;11.68;53.48;99265.55;117256;1185;23570;-49
2022/04/03 10:00:41;;;;;;;6.20;4.90;;;;;;;11.51;53.53;99266.14;117277;1185;24388;-49
2022/04/03 10:03:11;;;;;;;6.00;5.10;;;;;;;11.38;53.48;99270.09;117845;1185;22632;-59
2022/04/03 10:05:46;;;;;;;6.30;5.00;;;;;;;11.35;53.72;99276.67;117206;1185;26643;-57
2022/04/03 10:08:16;;;;;;;5.90;4.90;;;;;;;11.37;53.64;99278.58;117159;1184;24169;-59
2022/04/03 10:11:04;;;;;;;6.40;4.60;;;;;;;11.32;53.39;99283.98;117175;1188;21886;-49
2022/04/03 10:13:34;;;;;;;6.80;5.60;;;;;;;11.22;53.56;99288.54;117144;1186;23500;-58
2022/04/03 10:16:04;;;;;;;6.50;5.80;;;;;;;11.17;53.48;99293.95;117156;1186;23582;-49
2022/04/03 10:18:34;;;;;;;8.80;7.80;;;;;;;11.17;53.79;99292.20;117127;1186;21858;-49
2022/04/03 10:21:03;;;;;;;7.20;6.50;;;;;;;11.13;53.37;99293.20;117263;1185;23472;-58
2022/04/03 10:23:32;;;;;;;8.60;7.30;;;;;;;11.01;53.36;99299.17;117148;1187;22921;-58
2022/04/03 10:26:01;;;;;;;8.80;7.90;;;;;;;10.96;53.49;99301.45;117211;1181;21913;-58
2022/04/03 10:28:29;;;;;;;7.90;7.10;;;;;;;10.99;53.47;99304.52;117091;1187;23455;-58
2022/04/03 10:31:06;;;;;;;9.70;8.50;;;;;;;11.04;53.63;99299.28;117169;1180;23004;-58
2022/04/03 10:33:40;;;;;;;9.80;8.00;;;;;;;11.14;53.77;99302.30;117329;1185;21849;-58
2022/04/03 10:36:11;;;;;;;11.20;8.40;;;;;;;11.15;53.47;99304.70;117432;1184;21903;-49
2022/04/03 10:38:47;;;;;;;9.50;8.50;;;;;;;11.15;53.53;99311.38;117306;1185;21855;-48
2022/04/03 10:41:43;;;;;;;10.50;9.40;;;;;;;11.17;53.64;99314.30;117120;1187;24304;-52
2022/04/03 10:44:13;;;;;;;11.80;9.90;;;;;;;11.21;53.47;99314.90;117259;1186;21937;-49
2022/04/03 10:47:01;;;;;;;11.10;9.70;;;;;;;11.31;53.70;99311.06;117265;1186;23441;-48
2022/04/03 10:49:49;;;;;;;11.10;9.70;;;;;;;11.47;53.89;99312.48;117195;1185;23073;-58
2022/04/03 10:52:17;;;;;;;11.70;10.30;;;;;;;11.70;53.96;99306.45;117123;1182;21938;-58
2022/04/03 10:54:52;;;;;;;12.90;10.80;;;;;;;11.88;54.07;99305.65;117193;1186;22996;-59
2022/04/03 10:57:43;;;;;;;10.80;9.70;;;;;;;12.05;54.11;99310.89;117324;1186;21852;-59
2022/04/03 11:00:14;;;;;;;11.50;10.30;;;;;;;12.05;53.81;99309.48;117349;1185;23640;-59
2022/04/03 11:02:56;;;;;;;11.30;10.00;;;;;;;11.97;53.65;99311.33;117226;1185;23525;-60
2022/04/03 11:05:25;;;;;;;11.50;9.70;;;;;;;11.95;53.64;99311.41;117235;1186;23547;-50
2022/04/03 11:08:00;;;;;;;11.10;10.00;;;;;;;11.90;53.46;99311.20;117269;1186;22618;-51
2022/04/03 11:10:57;;;;;;;10.50;9.50;;;;;;;11.86;53.57;99308.87;117229;1186;23863;-58
2022/04/03 11:13:33;;;;;;;11.10;10.00;;;;;;;11.88;53.56;99316.91;117249;1185;21852;-49
2022/04/03 11:16:09;;;;;;;10.80;9.60;;;;;;;11.85;53.68;99319.27;117277;1185;21842;-50
2022/04/03 11:18:47;;;;;;;10.40;9.20;;;;;;;11.75;53.60;99320.86;117344;1186;24679;-59
2022/04/03 11:21:30;;;;;;;11.10;9.70;;;;;;;11.69;53.58;99324.20;117361;1186;23444;-58
2022/04/03 11:24:06;;;;;;;10.40;8.50;;;;;;;11.55;53.27;99327.33;117118;1186;21855;-59
2022/04/03 11:26:35;;;;;;;10.40;9.30;;;;;;;11.52;53.34;99334.27;117162;1186;23450;-59
2022/04/03 11:29:09;;;;;;;9.90;8.90;;;;;;;11.50;53.49;99339.06;117205;1185;23161;-49
2022/04/03 11:31:40;;;;;;;10.50;9.00;;;;;;;11.43;53.18;99340.87;117136;1186;22929;-49
2022/04/03 11:34:09;;;;;;;9.80;8.70;;;;;;;11.36;53.35;99342.15;117255;1186;22995;-49